createdAt,value
2023-02-03T00:01:51.264Z,2.30
2023-02-03T00:04:18.065Z,2.30
2023-02-03T00:06:45.087Z,2.30
2023-02-03T00:09:12.351Z,2.30
2023-02-03T00:11:39.898Z,2.30
2023-02-03T00:14:08.005Z,2.40
2023-02-03T00:16:35.343Z,2.40
2023-02-03T00:19:02.409Z,2.40
2023-02-03T00:21:29.077Z,2.40
2023-02-03T00:23:55.796Z,2.40
2023-02-03T00:26:24.336Z,2.40
2023-02-03T00:28:51.033Z,2.40
2023-02-03T00:31:20.101Z,2.40
2023-02-03T00:33:48.016Z,2.40
2023-02-03T00:36:14.687Z,2.40
2023-02-03T00:38:41.427Z,2.40
2023-02-03T00:41:08.378Z,2.40
2023-02-03T00:43:35.089Z,2.40
2023-02-03T00:46:02.042Z,2.40
2023-02-03T00:48:29.554Z,2.40
2023-02-03T00:50:56.444Z,2.30
2023-02-03T00:53:23.157Z,2.40
2023-02-03T00:55:50.433Z,2.30
2023-02-03T00:58:17.136Z,2.30
2023-02-03T01:00:43.901Z,2.40
2023-02-03T01:03:10.968Z,2.30
2023-02-03T01:05:37.817Z,2.30
2023-02-03T01:08:04.814Z,2.30
2023-02-03T01:10:31.893Z,2.40
2023-02-03T01:12:58.594Z,2.40
2023-02-03T01:15:25.576Z,2.40
2023-02-03T01:17:52.683Z,2.40
2023-02-03T01:20:21.544Z,2.50
2023-02-03T01:22:48.755Z,2.50
2023-02-03T01:25:15.869Z,2.50
2023-02-03T01:27:42.562Z,2.50
2023-02-03T01:30:10.044Z,2.60
2023-02-03T01:32:37.003Z,2.60
2023-02-03T01:35:03.801Z,2.60
2023-02-03T01:37:30.747Z,2.60
2023-02-03T01:39:57.781Z,2.60
2023-02-03T01:42:24.844Z,2.60
2023-02-03T01:44:52.310Z,2.60
2023-02-03T01:47:35.379Z,2.60
2023-02-03T01:50:22.396Z,2.60
2023-02-03T01:52:53.420Z,2.60
2023-02-03T01:55:23.437Z,2.60
2023-02-03T01:58:00.123Z,2.60
2023-02-03T02:00:27.842Z,2.60
2023-02-03T02:02:55.623Z,2.60
2023-02-03T02:05:36.984Z,2.60
2023-02-03T02:08:04.822Z,2.70
2023-02-03T02:10:32.355Z,2.70
2023-02-03T02:13:02.710Z,2.60
2023-02-03T02:16:06.096Z,2.60
2023-02-03T02:19:26.975Z,2.60
2023-02-03T02:21:59.314Z,2.70
2023-02-03T02:25:04.008Z,2.70
2023-02-03T02:28:10.079Z,2.70
2023-02-03T02:30:54.413Z,2.70
2023-02-03T02:33:33.744Z,2.80
2023-02-03T02:36:24.619Z,2.80
2023-02-03T02:39:29.215Z,2.70
2023-02-03T02:42:15.198Z,2.70
2023-02-03T02:44:48.642Z,2.70
2023-02-03T02:47:24.047Z,2.70
2023-02-03T02:50:01.833Z,2.70
2023-02-03T02:52:32.043Z,2.70
2023-02-03T02:55:05.621Z,2.70
2023-02-03T02:57:35.212Z,2.70
2023-02-03T03:00:02.653Z,2.70
2023-02-03T03:02:35.043Z,2.70
2023-02-03T03:05:05.608Z,2.70
2023-02-03T03:07:36.881Z,2.80
2023-02-03T03:10:10.416Z,2.80
2023-02-03T03:12:43.467Z,2.80
2023-02-03T03:15:23.069Z,2.90
2023-02-03T03:17:59.642Z,2.90
2023-02-03T03:20:28.257Z,2.90
2023-02-03T03:23:01.464Z,2.90
2023-02-03T03:25:36.459Z,2.90
2023-02-03T03:28:08.755Z,2.90
2023-02-03T03:30:37.410Z,2.90
2023-02-03T03:33:05.667Z,2.90
2023-02-03T03:35:41.575Z,2.90
2023-02-03T03:38:20.605Z,2.90
2023-02-03T03:40:55.422Z,2.90
2023-02-03T03:43:28.525Z,2.90
2023-02-03T03:46:02.893Z,2.90
2023-02-03T03:48:48.150Z,3.00
2023-02-03T03:51:28.568Z,3.00
2023-02-03T03:54:00.119Z,3.00
2023-02-03T03:56:36.065Z,3.00
2023-02-03T03:59:04.160Z,3.00
2023-02-03T04:01:32.427Z,3.00
2023-02-03T04:04:03.229Z,3.00
2023-02-03T04:06:29.994Z,3.00
2023-02-03T04:08:57.080Z,3.00
2023-02-03T04:11:42.145Z,3.00
2023-02-03T04:14:09.137Z,3.00
2023-02-03T04:16:36.093Z,3.00
2023-02-03T04:19:02.835Z,3.00
2023-02-03T04:21:29.514Z,3.00
2023-02-03T04:23:57.222Z,3.10
2023-02-03T04:26:24.090Z,3.10
2023-02-03T04:28:51.104Z,3.10
2023-02-03T04:31:18.104Z,3.10
2023-02-03T04:33:45.125Z,3.10
2023-02-03T04:36:12.079Z,3.10
2023-02-03T04:38:38.784Z,3.10
2023-02-03T04:41:05.492Z,3.10
2023-02-03T04:43:32.210Z,3.10
2023-02-03T04:46:02.125Z,3.10
2023-02-03T04:48:29.104Z,3.10
2023-02-03T04:50:55.805Z,3.10
2023-02-03T04:53:22.797Z,3.10
2023-02-03T04:55:49.486Z,3.10
2023-02-03T04:58:16.203Z,3.10
2023-02-03T05:00:43.191Z,3.10
2023-02-03T05:03:09.990Z,3.10
2023-02-03T05:05:36.939Z,3.10
2023-02-03T05:08:03.768Z,3.10
2023-02-03T05:10:30.761Z,3.10
2023-02-03T05:12:57.915Z,3.10
2023-02-03T05:15:24.917Z,3.10
2023-02-03T05:17:53.184Z,3.10
2023-02-03T05:20:20.271Z,3.10
2023-02-03T05:22:47.106Z,3.10
2023-02-03T05:25:14.387Z,3.20
2023-02-03T05:27:42.133Z,3.20
2023-02-03T05:30:09.958Z,3.20
2023-02-03T05:32:36.850Z,3.20
2023-02-03T05:35:03.998Z,3.20
2023-02-03T05:37:30.749Z,3.20
2023-02-03T05:40:17.463Z,3.20
2023-02-03T05:42:50.606Z,3.20
2023-02-03T05:45:17.909Z,3.20
2023-02-03T05:47:44.618Z,3.20
2023-02-03T05:50:11.372Z,3.20
2023-02-03T05:52:38.316Z,3.20
2023-02-03T05:55:05.252Z,3.20
2023-02-03T05:57:32.446Z,3.20
2023-02-03T05:59:59.452Z,3.20
2023-02-03T06:02:26.139Z,3.20
2023-02-03T06:04:52.845Z,3.20
2023-02-03T06:07:19.788Z,3.20
2023-02-03T06:09:46.787Z,3.20
2023-02-03T06:12:14.586Z,3.20
2023-02-03T06:14:41.990Z,3.20
2023-02-03T06:17:08.898Z,3.20
2023-02-03T06:19:35.641Z,3.20
2023-02-03T06:22:02.340Z,3.30
2023-02-03T06:24:29.267Z,3.30
2023-02-03T06:26:55.945Z,3.30
2023-02-03T06:29:22.632Z,3.30
2023-02-03T06:31:49.753Z,3.30
2023-02-03T06:34:16.558Z,3.30
2023-02-03T06:36:43.259Z,3.30
2023-02-03T06:39:10.342Z,3.30
2023-02-03T06:41:37.015Z,3.30
2023-02-03T06:44:03.860Z,3.30
2023-02-03T06:46:31.165Z,3.30
2023-02-03T06:48:57.962Z,3.30
2023-02-03T06:51:25.184Z,3.30
2023-02-03T06:53:52.113Z,3.30
2023-02-03T06:56:18.807Z,3.30
2023-02-03T06:58:45.826Z,3.30
2023-02-03T07:01:12.603Z,3.30
2023-02-03T07:03:39.376Z,3.40
2023-02-03T07:06:06.795Z,3.40
2023-02-03T07:08:33.567Z,3.40
2023-02-03T07:11:00.246Z,3.40
2023-02-03T07:13:27.195Z,3.40
2023-02-03T07:15:53.926Z,3.40
2023-02-03T07:18:45.733Z,3.40
2023-02-03T07:21:34.281Z,3.40
2023-02-03T07:24:17.366Z,3.50
2023-02-03T07:26:44.317Z,3.50
2023-02-03T07:29:11.017Z,3.50
2023-02-03T07:31:38.497Z,3.50
2023-02-03T07:34:06.628Z,3.50
2023-02-03T07:36:33.514Z,3.50
2023-02-03T07:39:00.524Z,3.50
2023-02-03T07:41:27.313Z,3.50
2023-02-03T07:43:54.032Z,3.50
2023-02-03T07:46:20.794Z,3.60
2023-02-03T07:48:47.617Z,3.60
2023-02-03T07:51:14.566Z,3.60
2023-02-03T07:53:41.448Z,3.70
2023-02-03T07:56:08.213Z,3.70
2023-02-03T07:58:35.209Z,3.70
2023-02-03T08:01:01.905Z,3.70
2023-02-03T08:03:28.638Z,3.70
2023-02-03T08:05:55.306Z,3.70
2023-02-03T08:08:22.046Z,3.70
2023-02-03T08:10:49.000Z,3.70
2023-02-03T08:13:15.709Z,3.70
2023-02-03T08:15:42.427Z,3.70
2023-02-03T08:18:09.940Z,3.80
2023-02-03T08:20:36.900Z,3.80
2023-02-03T08:23:03.671Z,3.80
2023-02-03T08:25:30.940Z,3.70
2023-02-03T08:27:58.053Z,3.70
2023-02-03T08:30:25.928Z,3.70
2023-02-03T08:32:53.030Z,3.80
2023-02-03T08:35:19.851Z,3.80
2023-02-03T08:37:46.843Z,3.80
2023-02-03T08:40:13.577Z,3.80
2023-02-03T08:42:47.668Z,3.80
2023-02-03T08:45:14.610Z,3.80
2023-02-03T08:47:41.347Z,3.70
2023-02-03T08:50:09.491Z,3.70
2023-02-03T08:52:36.372Z,3.70
2023-02-03T08:55:03.272Z,3.70
2023-02-03T08:57:36.657Z,3.70
2023-02-03T09:00:05.232Z,3.70
2023-02-03T09:02:32.085Z,3.70
2023-02-03T09:04:59.391Z,3.70
2023-02-03T09:07:26.602Z,3.70
2023-02-03T09:09:53.623Z,3.70
2023-02-03T09:12:20.370Z,3.70
2023-02-03T09:14:47.331Z,3.80
2023-02-03T09:17:14.026Z,3.80
2023-02-03T09:19:41.031Z,3.80
2023-02-03T09:22:07.806Z,3.80
2023-02-03T09:24:34.627Z,3.80
2023-02-03T09:27:01.595Z,3.90
2023-02-03T09:29:28.482Z,3.90
2023-02-03T09:31:55.651Z,3.90
2023-02-03T09:34:22.932Z,3.90
2023-02-03T09:36:51.349Z,4.00
2023-02-03T09:39:18.597Z,4.00
2023-02-03T09:42:00.119Z,4.00
2023-02-03T09:44:46.310Z,4.00
2023-02-03T09:47:35.709Z,4.00
2023-02-03T09:50:06.431Z,4.00
2023-02-03T09:52:36.953Z,4.10
2023-02-03T09:55:09.465Z,4.00
2023-02-03T09:57:43.465Z,4.00
2023-02-03T10:00:21.984Z,4.00
2023-02-03T10:02:52.075Z,4.00
2023-02-03T10:05:51.137Z,4.00
2023-02-03T10:08:43.258Z,4.00
2023-02-03T10:11:31.763Z,4.10
2023-02-03T10:14:17.283Z,4.10
2023-02-03T10:17:22.986Z,4.10
2023-02-03T10:20:07.193Z,4.10
2023-02-03T10:22:40.744Z,4.20
2023-02-03T10:25:09.226Z,4.20
2023-02-03T10:27:38.128Z,4.20
2023-02-03T10:30:29.566Z,4.30
2023-02-03T10:33:34.527Z,4.30
2023-02-03T10:36:43.051Z,4.30
2023-02-03T10:39:37.564Z,4.40
2023-02-03T10:42:06.349Z,4.40
2023-02-03T10:44:40.354Z,4.40
2023-02-03T10:47:34.814Z,4.40
2023-02-03T10:50:09.822Z,4.40
2023-02-03T10:52:36.742Z,4.40
2023-02-03T10:55:27.801Z,4.30
2023-02-03T10:57:55.754Z,4.40
2023-02-03T11:00:22.864Z,4.30
2023-02-03T11:03:07.834Z,4.30
2023-02-03T11:05:34.951Z,4.20
2023-02-03T11:08:01.962Z,4.20
2023-02-03T11:10:35.581Z,4.20
2023-02-03T11:13:23.990Z,4.20
2023-02-03T11:15:58.436Z,4.20
2023-02-03T11:18:39.767Z,4.20
2023-02-03T11:21:17.574Z,4.20
2023-02-03T11:24:26.147Z,4.10
2023-02-03T11:27:06.807Z,4.10
2023-02-03T11:30:06.854Z,4.00
2023-02-03T11:32:41.735Z,4.00
2023-02-03T11:35:20.365Z,4.00
2023-02-03T11:37:51.170Z,4.10
2023-02-03T11:40:20.864Z,4.10
2023-02-03T11:42:50.617Z,4.10
2023-02-03T11:45:45.924Z,4.10
2023-02-03T11:48:35.817Z,4.10
2023-02-03T11:51:14.575Z,4.10
2023-02-03T11:54:11.978Z,4.10
2023-02-03T11:57:01.591Z,4.10
2023-02-03T11:59:40.518Z,4.10
2023-02-03T12:02:44.882Z,4.10
2023-02-03T12:05:27.308Z,4.10
2023-02-03T12:08:44.494Z,4.10
2023-02-03T12:11:32.031Z,4.10
2023-02-03T12:13:59.280Z,4.10
2023-02-03T12:16:59.026Z,4.10
2023-02-03T12:19:36.531Z,4.10
2023-02-03T12:22:21.363Z,4.10
2023-02-03T12:25:08.027Z,4.10
2023-02-03T12:28:32.284Z,4.10
2023-02-03T12:31:39.672Z,4.10
2023-02-03T12:34:24.986Z,4.20
2023-02-03T12:36:56.941Z,4.10
2023-02-03T12:40:02.746Z,4.20
2023-02-03T12:42:39.955Z,4.20
2023-02-03T12:45:09.907Z,4.20
2023-02-03T12:47:43.526Z,4.20
2023-02-03T12:50:23.904Z,4.20
2023-02-03T12:53:15.560Z,4.20
2023-02-03T12:55:51.023Z,4.20
2023-02-03T12:58:25.516Z,4.20
2023-02-03T13:01:04.841Z,4.20
2023-02-03T13:03:48.663Z,4.20
2023-02-03T13:06:33.772Z,4.20
2023-02-03T13:09:20.780Z,4.20
2023-02-03T13:12:12.210Z,4.10
2023-02-03T13:14:49.422Z,4.10
2023-02-03T13:17:31.619Z,4.10
2023-02-03T13:20:06.936Z,4.10
2023-02-03T13:22:33.873Z,4.10
2023-02-03T13:25:15.071Z,4.10
2023-02-03T13:28:10.082Z,4.10
2023-02-03T13:31:00.829Z,4.20
2023-02-03T13:33:46.378Z,4.20
2023-02-03T13:36:37.477Z,4.20
2023-02-03T13:39:18.305Z,4.20
2023-02-03T13:41:45.155Z,4.20
2023-02-03T13:44:15.517Z,4.20
2023-02-03T13:46:42.725Z,4.20
2023-02-03T13:49:10.273Z,4.20
2023-02-03T13:51:45.624Z,4.20
2023-02-03T13:54:24.793Z,4.20
2023-02-03T13:57:02.311Z,4.20
2023-02-03T13:59:39.194Z,4.20
2023-02-03T14:02:27.186Z,4.20
2023-02-03T14:04:56.655Z,4.30
2023-02-03T14:07:26.523Z,4.20
2023-02-03T14:10:06.048Z,4.30
2023-02-03T14:12:38.111Z,4.20
2023-02-03T14:15:36.233Z,4.20
2023-02-03T14:18:23.295Z,4.20
2023-02-03T14:20:57.008Z,4.20
2023-02-03T14:23:34.144Z,4.20
2023-02-03T14:26:01.620Z,4.20
2023-02-03T14:28:39.367Z,4.20
2023-02-03T14:31:17.467Z,4.20
2023-02-03T14:34:08.182Z,4.20
2023-02-03T14:36:40.525Z,4.30
2023-02-03T14:39:25.374Z,4.20
2023-02-03T14:42:21.704Z,4.20
2023-02-03T14:45:02.867Z,4.20
2023-02-03T14:47:48.030Z,4.30
2023-02-03T14:50:28.879Z,4.30
2023-02-03T14:53:01.452Z,4.30
2023-02-03T14:55:34.460Z,4.30
2023-02-03T14:58:06.517Z,4.30
2023-02-03T15:00:35.381Z,4.40
2023-02-03T15:03:22.705Z,4.40
2023-02-03T15:05:58.960Z,4.40
2023-02-03T15:08:46.788Z,4.40
2023-02-03T15:11:33.007Z,4.40
2023-02-03T15:14:21.736Z,4.40
2023-02-03T15:16:58.394Z,4.40
2023-02-03T15:19:29.312Z,4.40
2023-02-03T15:21:56.415Z,4.40
2023-02-03T15:24:24.476Z,4.40
2023-02-03T15:26:55.003Z,4.40
2023-02-03T15:29:33.111Z,4.40
2023-02-03T15:32:12.865Z,4.40
2023-02-03T15:34:48.949Z,4.40
2023-02-03T15:37:18.673Z,4.40
2023-02-03T15:40:17.365Z,4.50
2023-02-03T15:43:23.594Z,4.40
2023-02-03T15:46:15.048Z,4.50
2023-02-03T15:49:23.215Z,4.40
2023-02-03T15:52:02.657Z,4.50
2023-02-03T15:54:41.322Z,4.50
2023-02-03T15:57:11.823Z,4.50
2023-02-03T15:59:46.230Z,4.40
2023-02-03T16:02:21.339Z,4.50
2023-02-03T16:04:50.204Z,4.50
2023-02-03T16:07:21.170Z,4.50
2023-02-03T16:09:51.877Z,4.50
2023-02-03T16:12:23.937Z,4.50
2023-02-03T16:14:51.583Z,4.50
2023-02-03T16:17:29.880Z,4.50
2023-02-03T16:20:13.074Z,4.50
2023-02-03T16:22:59.394Z,4.50
2023-02-03T16:25:30.177Z,4.60
2023-02-03T16:28:19.964Z,4.60
2023-02-03T16:31:20.597Z,4.60
2023-02-03T16:34:07.896Z,4.60
2023-02-03T16:36:58.911Z,4.50
2023-02-03T16:39:45.553Z,4.50
2023-02-03T16:42:35.483Z,4.50
2023-02-03T16:45:21.514Z,4.50
2023-02-03T16:48:07.025Z,4.60
2023-02-03T16:50:52.730Z,4.50
2023-02-03T16:53:22.317Z,4.60
2023-02-03T16:55:50.170Z,4.60
2023-02-03T16:58:17.743Z,4.50
2023-02-03T17:00:47.178Z,4.60
2023-02-03T17:03:16.706Z,4.60
2023-02-03T17:05:45.335Z,4.60
2023-02-03T17:08:12.684Z,4.60
2023-02-03T17:10:41.698Z,4.60
2023-02-03T17:13:10.397Z,4.60
2023-02-03T17:15:41.761Z,4.60
2023-02-03T17:18:17.432Z,4.60
2023-02-03T17:20:45.795Z,4.60
2023-02-03T17:23:13.246Z,4.50
2023-02-03T17:25:40.526Z,4.50
2023-02-03T17:28:09.298Z,4.50
2023-02-03T17:30:36.310Z,4.50
2023-02-03T17:33:12.283Z,4.40
2023-02-03T17:35:44.319Z,4.40
2023-02-03T17:38:13.104Z,4.30
2023-02-03T17:54:37.159Z,4.00
2023-02-03T17:57:03.883Z,4.00
2023-02-03T17:59:30.856Z,4.00
2023-02-03T18:01:57.549Z,4.00
2023-02-03T18:04:24.382Z,3.90
2023-02-03T18:06:53.402Z,3.90
2023-02-03T18:09:20.667Z,3.90
2023-02-03T18:11:47.477Z,3.80
2023-02-03T18:14:16.013Z,3.90
2023-02-03T18:16:43.645Z,3.80
2023-02-03T18:19:14.196Z,3.80
2023-02-03T18:21:42.199Z,3.80
2023-02-03T18:24:11.978Z,3.70
2023-02-03T18:26:47.683Z,3.60
2023-02-03T18:29:14.765Z,3.60
2023-02-03T18:31:41.537Z,3.60
2023-02-03T18:34:08.556Z,3.60
2023-02-03T18:36:35.309Z,3.60
2023-02-03T18:39:02.270Z,3.60
2023-02-03T18:41:29.355Z,3.50
2023-02-03T18:43:58.467Z,3.50
2023-02-03T18:46:29.148Z,3.50
2023-02-03T18:48:56.291Z,3.40
2023-02-03T18:51:24.912Z,3.40
2023-02-03T18:53:52.344Z,3.40
2023-02-03T18:56:22.864Z,3.40
2023-02-03T18:58:50.033Z,3.40
2023-02-03T19:01:30.767Z,3.30
2023-02-03T19:04:05.018Z,3.40
2023-02-03T19:06:33.489Z,3.40
2023-02-03T19:09:05.753Z,3.30
2023-02-03T19:11:49.168Z,3.30
2023-02-03T19:14:26.051Z,3.30
2023-02-03T19:16:53.166Z,3.30
2023-02-03T19:19:20.385Z,3.30
2023-02-03T19:21:48.661Z,3.30
2023-02-03T19:24:16.272Z,3.30
2023-02-03T19:26:43.069Z,3.30
2023-02-03T19:29:10.335Z,3.30
2023-02-03T19:31:37.217Z,3.20
2023-02-03T19:34:03.994Z,3.30
2023-02-03T19:36:31.029Z,3.30
2023-02-03T19:38:57.960Z,3.30
2023-02-03T19:41:26.474Z,3.30
2023-02-03T19:43:54.347Z,3.20
2023-02-03T19:46:22.399Z,3.20
2023-02-03T19:48:49.698Z,3.20
2023-02-03T19:51:17.314Z,3.20
2023-02-03T19:53:44.111Z,3.20
2023-02-03T19:56:11.076Z,3.30
2023-02-03T19:58:38.876Z,3.20
2023-02-03T20:01:06.019Z,3.20
2023-02-03T20:03:33.081Z,3.20
2023-02-03T20:06:01.145Z,3.20
2023-02-03T20:08:28.448Z,3.20
2023-02-03T20:10:55.210Z,3.20
2023-02-03T20:13:21.996Z,3.20
2023-02-03T20:15:49.062Z,3.20
2023-02-03T20:18:15.959Z,3.20
2023-02-03T20:20:42.740Z,3.20
2023-02-03T20:23:10.465Z,3.20
2023-02-03T20:25:37.217Z,3.20
2023-02-03T20:28:04.303Z,3.20
2023-02-03T20:30:32.152Z,3.20
2023-02-03T20:32:59.065Z,3.20
2023-02-03T20:35:26.660Z,3.20
2023-02-03T20:37:53.883Z,3.20
2023-02-03T20:40:26.919Z,3.20
2023-02-03T20:42:53.887Z,3.20
2023-02-03T20:45:23.692Z,3.10
2023-02-03T20:47:51.412Z,3.10
2023-02-03T20:50:23.629Z,3.10
2023-02-03T20:52:53.368Z,3.10
2023-02-03T20:55:22.284Z,3.10
2023-02-03T20:57:55.303Z,3.10
2023-02-03T21:00:25.034Z,3.20
2023-02-03T21:03:11.062Z,3.10
2023-02-03T21:05:43.106Z,3.10
2023-02-03T21:08:19.023Z,3.10
2023-02-03T21:10:47.157Z,3.10
2023-02-03T21:13:24.782Z,3.10
2023-02-03T21:15:55.003Z,3.10
2023-02-03T21:18:37.056Z,3.10
2023-02-03T21:21:04.815Z,3.10
2023-02-03T21:23:40.305Z,3.10
2023-02-03T21:26:24.593Z,3.10
2023-02-03T21:28:59.216Z,3.10
2023-02-03T21:31:31.679Z,3.10
2023-02-03T21:34:04.095Z,3.00
2023-02-03T21:36:35.282Z,3.10
2023-02-03T21:39:02.833Z,3.10
2023-02-03T21:41:33.709Z,3.10
2023-02-03T21:44:01.390Z,3.20
2023-02-03T21:46:31.902Z,3.20
2023-02-03T21:49:00.042Z,3.20
2023-02-03T21:51:36.692Z,3.30
2023-02-03T21:54:22.385Z,3.20
2023-02-03T21:56:50.809Z,3.20
2023-02-03T21:59:20.989Z,3.30
2023-02-03T22:01:48.205Z,3.30
2023-02-03T22:04:15.336Z,3.30
2023-02-03T22:06:50.339Z,3.30
2023-02-03T22:09:19.330Z,3.30
2023-02-03T22:11:46.288Z,3.40
2023-02-03T22:14:14.863Z,3.30
2023-02-03T22:16:41.757Z,3.40
2023-02-03T22:19:08.925Z,3.30
2023-02-03T22:21:36.317Z,3.30
2023-02-03T22:24:03.096Z,3.30
2023-02-03T22:26:29.794Z,3.30
2023-02-03T22:28:56.762Z,3.30
2023-02-03T22:31:23.632Z,3.30
2023-02-03T22:33:50.350Z,3.30
2023-02-03T22:36:17.292Z,3.20
2023-02-03T22:38:43.993Z,3.30
2023-02-03T22:41:13.951Z,3.20
2023-02-03T22:43:41.364Z,3.20
2023-02-03T22:46:08.258Z,3.20
2023-02-03T22:48:35.379Z,3.10
2023-02-03T22:51:02.494Z,3.10
2023-02-03T22:53:29.528Z,3.10
2023-02-03T22:55:56.473Z,3.10
2023-02-03T22:58:23.073Z,3.20
2023-02-03T23:00:49.696Z,3.20
2023-02-03T23:03:17.033Z,3.20
2023-02-03T23:05:43.944Z,3.30
2023-02-03T23:08:10.675Z,3.30
2023-02-03T23:10:37.374Z,3.20
2023-02-03T23:13:04.226Z,3.20
2023-02-03T23:15:30.993Z,3.20
2023-02-03T23:17:58.567Z,3.20
2023-02-03T23:20:25.318Z,3.20
2023-02-03T23:22:51.995Z,3.20
2023-02-03T23:25:19.144Z,3.20
2023-02-03T23:27:45.930Z,3.20
2023-02-03T23:30:13.306Z,3.20
2023-02-03T23:32:40.213Z,3.20
2023-02-03T23:35:25.866Z,3.20
2023-02-03T23:37:52.778Z,3.20
2023-02-03T23:40:19.483Z,3.20
2023-02-03T23:42:46.094Z,3.20
2023-02-03T23:45:13.212Z,3.10
2023-02-03T23:47:41.593Z,3.10
2023-02-03T23:50:11.039Z,3.10
2023-02-03T23:52:38.219Z,3.10
2023-02-03T23:55:17.276Z,3.10
2023-02-03T23:57:44.660Z,3.10
